createdAt,value
2022-12-08T00:01:35.660Z,18.11
2022-12-08T00:05:01.817Z,18.52
2022-12-08T00:08:25.503Z,18.20
2022-12-08T00:11:31.192Z,17.92
2022-12-08T00:14:40.615Z,18.29
2022-12-08T00:17:46.023Z,18.64
2022-12-08T00:20:58.684Z,18.75
2022-12-08T00:24:07.045Z,19.13
2022-12-08T00:27:16.685Z,18.48
2022-12-08T00:30:22.374Z,19.05
2022-12-08T00:33:31.468Z,18.42
2022-12-08T00:36:38.091Z,18.64
2022-12-08T00:39:48.358Z,17.58
2022-12-08T00:42:53.915Z,17.95
2022-12-08T00:46:00.264Z,18.32
2022-12-08T00:49:06.883Z,17.68
2022-12-08T00:52:13.523Z,17.31
2022-12-08T00:55:21.558Z,17.34
2022-12-08T00:58:27.905Z,17.15
2022-12-08T01:01:34.033Z,17.42
2022-12-08T01:04:41.996Z,17.27
2022-12-08T01:07:49.155Z,17.06
2022-12-08T01:10:57.987Z,16.89
2022-12-08T01:14:03.790Z,16.96
2022-12-08T01:17:11.433Z,16.66
2022-12-08T01:20:17.091Z,16.67
2022-12-08T01:23:23.996Z,17.05
2022-12-08T01:26:32.121Z,16.73
2022-12-08T01:29:38.650Z,17.53
2022-12-08T01:32:44.161Z,17.84
2022-12-08T01:35:51.656Z,17.13
2022-12-08T01:39:00.561Z,16.92
2022-12-08T01:42:10.010Z,16.49
2022-12-08T01:45:25.333Z,17.28
2022-12-08T01:48:31.797Z,16.99
2022-12-08T01:51:48.684Z,16.76
2022-12-08T01:55:00.951Z,16.51
2022-12-08T01:58:19.706Z,17.01
2022-12-08T02:01:26.744Z,17.65
2022-12-08T02:04:32.396Z,16.97
2022-12-08T02:07:39.834Z,17.25
2022-12-08T02:10:47.093Z,17.35
2022-12-08T02:13:58.369Z,16.64
2022-12-08T02:17:23.834Z,17.20
2022-12-08T02:20:59.219Z,16.97
2022-12-08T02:24:23.433Z,16.72
2022-12-08T02:27:49.560Z,16.75
2022-12-08T02:31:20.652Z,17.28
2022-12-08T02:34:45.780Z,17.50
2022-12-08T02:38:06.559Z,17.08
2022-12-08T02:41:33.333Z,17.29
2022-12-08T02:44:48.818Z,17.35
2022-12-08T02:47:56.579Z,17.08
2022-12-08T02:51:04.644Z,16.55
2022-12-08T02:54:12.025Z,16.78
2022-12-08T02:57:41.200Z,16.91
2022-12-08T03:01:16.045Z,17.33
2022-12-08T03:04:41.188Z,18.03
2022-12-08T03:08:06.648Z,17.82
2022-12-08T03:11:23.141Z,18.07
2022-12-08T03:14:32.373Z,17.17
2022-12-08T03:17:44.231Z,17.56
2022-12-08T03:20:53.883Z,17.35
2022-12-08T03:24:08.823Z,17.11
2022-12-08T03:27:20.857Z,17.40
2022-12-08T03:30:26.448Z,17.11
2022-12-08T03:33:43.440Z,17.98
2022-12-08T03:36:49.287Z,18.02
2022-12-08T03:39:58.685Z,17.81
2022-12-08T03:43:04.546Z,18.58
2022-12-08T03:46:10.979Z,18.67
2022-12-08T03:49:16.625Z,18.97
2022-12-08T03:52:23.025Z,18.64
2022-12-08T03:55:31.103Z,19.15
2022-12-08T03:58:37.756Z,19.00
2022-12-08T04:01:43.219Z,18.94
2022-12-08T04:04:49.496Z,19.49
2022-12-08T04:08:01.347Z,20.41
2022-12-08T04:11:10.924Z,19.88
2022-12-08T04:14:16.639Z,20.42
2022-12-08T04:17:23.119Z,21.94
2022-12-08T04:20:28.621Z,21.58
2022-12-08T04:23:34.865Z,21.65
2022-12-08T04:26:42.952Z,21.59
2022-12-08T04:29:49.198Z,21.66
2022-12-08T04:32:57.093Z,20.93
2022-12-08T04:36:03.366Z,21.07
2022-12-08T04:39:22.595Z,21.88
2022-12-08T04:42:31.595Z,21.67
2022-12-08T04:45:37.289Z,21.71
2022-12-08T04:48:44.659Z,21.20
2022-12-08T04:51:50.165Z,20.88
2022-12-08T04:54:58.996Z,20.72
2022-12-08T04:58:07.310Z,21.82
2022-12-08T05:01:14.428Z,20.74
2022-12-08T05:04:20.051Z,20.45
2022-12-08T05:07:27.438Z,21.71
2022-12-08T05:10:33.052Z,21.35
2022-12-08T05:13:42.133Z,20.76
2022-12-08T05:16:48.673Z,20.79
2022-12-08T05:19:55.072Z,21.23
2022-12-08T05:23:00.654Z,20.24
2022-12-08T05:26:07.379Z,20.32
2022-12-08T05:29:15.464Z,20.24
2022-12-08T05:32:21.877Z,19.86
2022-12-08T05:35:27.329Z,20.74
2022-12-08T05:38:33.758Z,20.96
2022-12-08T05:41:39.209Z,22.26
2022-12-08T05:44:48.183Z,22.22
2022-12-08T05:47:55.589Z,23.54
2022-12-08T05:51:01.898Z,22.46
2022-12-08T05:54:07.641Z,23.05
2022-12-08T05:57:14.034Z,21.61
2022-12-08T06:00:24.827Z,23.18
2022-12-08T06:03:31.251Z,27.17
2022-12-08T06:06:38.993Z,24.24
2022-12-08T06:09:45.274Z,27.60
2022-12-08T06:12:50.781Z,24.11
2022-12-08T06:15:59.788Z,23.57
2022-12-08T06:19:05.212Z,22.79
2022-12-08T06:22:11.568Z,20.23
2022-12-08T06:25:17.014Z,21.76
2022-12-08T06:28:23.506Z,20.51
2022-12-08T06:31:31.666Z,20.80
2022-12-08T06:34:38.274Z,21.60
2022-12-08T06:37:43.809Z,21.84
2022-12-08T06:40:57.782Z,21.01
2022-12-08T06:44:03.303Z,22.91
2022-12-08T06:47:12.231Z,23.65
2022-12-08T06:50:18.009Z,25.99
2022-12-08T06:53:24.300Z,31.26
2022-12-08T06:56:30.315Z,26.12
2022-12-08T06:59:36.699Z,23.18
2022-12-08T07:02:45.906Z,22.29
2022-12-08T07:05:52.582Z,20.02
2022-12-08T07:08:58.128Z,23.04
2022-12-08T07:12:04.473Z,21.68
2022-12-08T07:15:12.395Z,22.36
2022-12-08T07:18:23.626Z,19.97
2022-12-08T07:21:29.166Z,19.05
2022-12-08T07:24:35.498Z,22.18
2022-12-08T07:27:40.974Z,19.79
2022-12-08T07:30:47.339Z,21.48
2022-12-08T07:33:57.167Z,31.65
2022-12-08T07:37:03.608Z,26.70
2022-12-08T07:40:12.856Z,33.47
2022-12-08T07:43:19.264Z,28.98
2022-12-08T07:46:27.495Z,32.55
2022-12-08T07:49:36.734Z,36.11
2022-12-08T07:52:42.219Z,26.76
2022-12-08T07:55:48.448Z,30.86
2022-12-08T07:58:54.137Z,34.35
2022-12-08T08:02:22.769Z,28.21
2022-12-08T08:05:28.673Z,31.07
2022-12-08T08:08:36.314Z,25.96
2022-12-08T08:11:41.791Z,28.31
2022-12-08T08:14:48.105Z,34.51
2022-12-08T08:17:54.287Z,29.32
2022-12-08T08:21:22.256Z,29.40
2022-12-08T08:24:28.766Z,24.67
2022-12-08T08:27:35.148Z,28.88
2022-12-08T08:30:40.750Z,28.49
2022-12-08T08:33:48.852Z,29.40
2022-12-08T08:36:57.016Z,29.56
2022-12-08T08:40:03.936Z,26.29
2022-12-08T08:43:34.299Z,26.78
2022-12-08T08:46:44.387Z,29.22
2022-12-08T08:49:49.994Z,27.11
2022-12-08T08:52:59.163Z,22.82
2022-12-08T08:56:05.256Z,24.57
2022-12-08T08:59:12.604Z,23.56
2022-12-08T09:02:22.145Z,23.84
2022-12-08T09:05:28.452Z,24.52
2022-12-08T09:08:36.482Z,25.42
2022-12-08T09:11:42.962Z,22.78
2022-12-08T09:14:48.651Z,22.33
2022-12-08T09:17:55.023Z,21.73
2022-12-08T09:21:06.411Z,20.93
2022-12-08T09:24:16.045Z,22.82
2022-12-08T09:27:21.853Z,23.86
2022-12-08T09:30:28.419Z,22.49
2022-12-08T09:33:34.211Z,21.96
2022-12-08T09:36:40.526Z,24.33
2022-12-08T09:39:49.483Z,23.51
2022-12-08T09:43:09.297Z,22.95
2022-12-08T09:46:21.099Z,22.75
2022-12-08T09:49:46.001Z,24.08
2022-12-08T09:53:05.036Z,26.06
2022-12-08T09:56:22.603Z,25.07
2022-12-08T09:59:34.893Z,21.92
2022-12-08T10:02:41.167Z,19.77
2022-12-08T10:05:58.890Z,18.87
2022-12-08T10:09:31.635Z,19.05
2022-12-08T10:12:54.033Z,32.94
2022-12-08T10:16:25.391Z,64.09
2022-12-08T10:19:38.114Z,55.61
2022-12-08T10:22:45.265Z,32.20
2022-12-08T10:25:56.941Z,23.80
2022-12-08T10:29:07.739Z,25.10
2022-12-08T10:32:22.947Z,22.16
2022-12-08T10:35:48.843Z,35.67
2022-12-08T10:38:54.414Z,28.65
2022-12-08T10:42:10.523Z,37.22
2022-12-08T10:45:29.547Z,24.49
2022-12-08T10:48:37.036Z,23.28
2022-12-08T10:51:45.296Z,23.08
2022-12-08T10:54:56.726Z,21.20
2022-12-08T10:58:02.290Z,21.48
2022-12-08T11:01:17.813Z,20.62
2022-12-08T11:04:38.375Z,20.06
2022-12-08T11:07:51.082Z,39.11
2022-12-08T11:10:56.988Z,33.07
2022-12-08T11:14:12.027Z,31.00
2022-12-08T11:17:29.790Z,37.10
2022-12-08T11:20:43.909Z,28.63
2022-12-08T11:23:53.316Z,29.63
2022-12-08T11:27:06.573Z,28.28
2022-12-08T11:30:21.484Z,35.97
2022-12-08T11:33:32.592Z,32.39
2022-12-08T11:36:41.109Z,26.19
2022-12-08T11:39:54.486Z,30.57
2022-12-08T11:43:17.511Z,24.94
2022-12-08T11:46:30.214Z,26.60
2022-12-08T11:49:44.373Z,31.56
2022-12-08T11:52:54.689Z,21.03
2022-12-08T11:56:09.588Z,45.97
2022-12-08T11:59:31.775Z,19.83
2022-12-08T12:02:49.165Z,23.28
2022-12-08T12:10:29.117Z,23.34
2022-12-08T12:14:05.432Z,28.30
2022-12-08T12:17:39.315Z,21.36
2022-12-08T12:21:00.078Z,44.14
2022-12-08T12:24:26.748Z,24.06
2022-12-08T12:27:43.830Z,22.06
2022-12-08T12:31:02.082Z,22.03
2022-12-08T12:34:19.312Z,22.20
2022-12-08T12:37:30.517Z,22.17
2022-12-08T12:40:45.457Z,67.01
2022-12-08T12:44:28.277Z,40.12
2022-12-08T12:47:56.688Z,78.28
2022-12-08T12:51:02.729Z,24.77
2022-12-08T12:54:25.960Z,39.80
2022-12-08T12:57:42.370Z,25.00
2022-12-08T13:00:49.920Z,22.21
2022-12-08T13:04:10.817Z,42.70
2022-12-08T13:07:25.641Z,60.37
2022-12-08T13:10:37.424Z,26.74
2022-12-08T13:14:03.371Z,43.33
2022-12-08T13:17:19.473Z,88.87
2022-12-08T13:20:29.118Z,64.24
2022-12-08T13:24:17.808Z,79.70
2022-12-08T13:27:37.882Z,33.66
2022-12-08T13:30:50.883Z,29.93
2022-12-08T13:38:48.896Z,50.64
2022-12-08T13:42:06.699Z,31.08
2022-12-08T13:45:59.210Z,26.77
2022-12-08T13:59:48.585Z,38.10
2022-12-08T14:03:02.430Z,31.44
2022-12-08T14:06:17.724Z,65.73
2022-12-08T14:09:28.214Z,44.41
2022-12-08T14:12:35.114Z,41.84
2022-12-08T14:15:43.240Z,167.58
2022-12-08T14:18:48.827Z,55.55
2022-12-08T14:22:01.962Z,40.74
2022-12-08T14:25:10.803Z,38.30
2022-12-08T14:28:17.179Z,38.64
2022-12-08T14:31:26.618Z,39.65
2022-12-08T14:34:39.786Z,43.68
2022-12-08T14:37:52.104Z,54.04
2022-12-08T14:41:08.879Z,88.87
2022-12-08T14:44:27.340Z,67.11
2022-12-08T14:47:36.359Z,64.84
2022-12-08T14:51:02.581Z,55.44
2022-12-08T14:54:18.148Z,59.72
2022-12-08T14:57:24.335Z,53.05
2022-12-08T15:00:32.028Z,46.67
2022-12-08T15:03:40.050Z,50.95
2022-12-08T15:06:56.407Z,55.19
2022-12-08T15:10:32.037Z,64.34
2022-12-08T15:13:38.345Z,48.83
2022-12-08T15:16:47.221Z,47.24
2022-12-08T15:19:59.291Z,45.06
2022-12-08T15:23:06.927Z,50.14
2022-12-08T15:26:25.268Z,41.88
2022-12-08T15:29:33.094Z,40.19
2022-12-08T15:32:39.400Z,39.92
2022-12-08T15:35:45.035Z,57.86
2022-12-08T15:38:51.435Z,47.50
2022-12-08T15:41:59.603Z,46.50
2022-12-08T15:45:06.571Z,55.97
2022-12-08T15:48:21.639Z,48.96
2022-12-08T15:51:27.932Z,54.30
2022-12-08T15:54:33.497Z,61.31
2022-12-08T15:58:31.216Z,78.22
2022-12-08T16:01:08.505Z,56.90
2022-12-08T16:05:06.385Z,48.59
2022-12-08T16:07:45.841Z,53.06
2022-12-08T16:11:34.475Z,51.28
2022-12-08T16:15:23.014Z,43.88
2022-12-08T16:17:45.909Z,89.16
2022-12-08T16:21:09.727Z,134.20
2022-12-08T16:24:18.583Z,131.06
2022-12-08T16:30:59.716Z,75.71
2022-12-08T16:34:05.447Z,89.19
2022-12-08T16:37:18.354Z,66.73
2022-12-08T16:40:24.221Z,68.41
2022-12-08T16:43:27.914Z,54.59
2022-12-08T16:46:37.654Z,48.67
2022-12-08T16:49:43.945Z,46.02
2022-12-08T16:52:53.048Z,51.42
2022-12-08T16:55:59.527Z,48.18
2022-12-08T16:59:05.594Z,53.87
2022-12-08T17:02:16.540Z,56.88
2022-12-08T17:05:25.140Z,62.40
2022-12-08T17:08:31.562Z,62.65
2022-12-08T17:11:42.973Z,54.10
2022-12-08T17:14:50.168Z,54.30
2022-12-08T17:17:59.708Z,67.47
2022-12-08T17:21:06.255Z,90.27
2022-12-08T17:24:14.604Z,77.48
2022-12-08T17:27:22.405Z,77.73
2022-12-08T17:30:27.938Z,81.77
2022-12-08T17:33:37.027Z,92.42
2022-12-08T17:36:43.048Z,101.15
2022-12-08T17:39:49.608Z,106.62
2022-12-08T17:42:55.114Z,87.42
2022-12-08T17:46:07.283Z,72.84
2022-12-08T17:49:21.832Z,71.43
2022-12-08T17:52:28.169Z,73.05
2022-12-08T17:55:33.643Z,56.89
2022-12-08T17:58:40.164Z,55.91
2022-12-08T18:01:46.235Z,55.18
2022-12-08T18:04:55.052Z,56.98
2022-12-08T18:08:01.453Z,65.17
2022-12-08T18:11:13.983Z,77.03
2022-12-08T18:14:20.155Z,68.17
2022-12-08T18:17:26.619Z,77.98
2022-12-08T18:20:35.018Z,81.28
2022-12-08T18:23:44.842Z,85.61
2022-12-08T18:26:52.427Z,87.98
2022-12-08T18:29:58.827Z,76.75
2022-12-08T18:33:07.237Z,72.71
2022-12-08T18:36:20.972Z,69.73
2022-12-08T18:39:30.226Z,69.39
2022-12-08T18:42:36.488Z,69.55
2022-12-08T18:45:42.560Z,76.97
2022-12-08T18:48:53.159Z,78.04
2022-12-08T18:52:01.124Z,70.16
2022-12-08T18:55:08.863Z,65.21
2022-12-08T18:58:14.541Z,62.59
2022-12-08T19:01:21.777Z,59.11
2022-12-08T19:04:29.661Z,57.12
2022-12-08T19:07:39.921Z,58.57
2022-12-08T19:10:45.671Z,59.46
2022-12-08T19:13:52.743Z,61.57
2022-12-08T19:16:58.540Z,72.90
2022-12-08T19:20:05.294Z,67.78
2022-12-08T19:23:15.309Z,69.67
2022-12-08T19:26:22.673Z,67.66
2022-12-08T19:29:28.139Z,69.04
2022-12-08T19:32:34.836Z,63.53
2022-12-08T19:35:40.429Z,61.76
2022-12-08T19:39:02.922Z,59.04
2022-12-08T19:42:30.341Z,64.81
2022-12-08T19:45:39.265Z,84.14
2022-12-08T19:48:44.739Z,116.96
2022-12-08T19:51:53.482Z,110.91
2022-12-08T19:55:01.604Z,122.03
2022-12-08T19:58:10.055Z,121.38
2022-12-08T20:01:17.129Z,143.33
2022-12-08T20:04:24.178Z,105.18
2022-12-08T20:07:29.702Z,99.65
2022-12-08T20:10:45.567Z,104.10
2022-12-08T20:13:51.246Z,122.61
2022-12-08T20:16:57.787Z,126.31
2022-12-08T20:20:07.071Z,133.25
2022-12-08T20:23:16.370Z,137.39
2022-12-08T20:26:26.089Z,154.72
2022-12-08T20:29:32.400Z,145.17
2022-12-08T20:32:38.094Z,141.28
2022-12-08T20:35:45.902Z,136.59
2022-12-08T20:38:54.605Z,134.18
2022-12-08T20:42:04.787Z,146.61
2022-12-08T20:45:11.787Z,127.40
2022-12-08T20:48:19.627Z,127.41
2022-12-08T20:51:31.418Z,135.97
2022-12-08T20:54:40.045Z,135.21
2022-12-08T20:57:48.291Z,120.65
2022-12-08T21:00:56.056Z,111.21
2022-12-08T21:04:02.120Z,114.97
2022-12-08T21:07:09.241Z,118.56
2022-12-08T21:10:14.996Z,111.92
2022-12-08T21:13:24.180Z,106.07
2022-12-08T21:16:29.856Z,121.66
2022-12-08T21:19:38.836Z,118.84
2022-12-08T21:22:44.699Z,105.70
2022-12-08T21:25:51.195Z,119.62
2022-12-08T21:29:01.189Z,135.46
2022-12-08T21:32:08.012Z,134.13
2022-12-08T21:35:14.586Z,137.14
2022-12-08T21:38:21.251Z,131.70
2022-12-08T21:41:39.866Z,156.21
2022-12-08T21:44:48.975Z,181.16
2022-12-08T21:47:54.948Z,195.05
2022-12-08T21:51:07.328Z,200.90
2022-12-08T21:54:18.590Z,236.12
2022-12-08T21:57:26.014Z,213.18
2022-12-08T22:00:34.624Z,183.13
2022-12-08T22:03:43.044Z,165.42
2022-12-08T22:06:49.077Z,157.09
2022-12-08T22:09:55.801Z,167.02
2022-12-08T22:13:01.750Z,168.73
2022-12-08T22:16:16.971Z,176.97
2022-12-08T22:19:24.763Z,181.04
2022-12-08T22:22:31.379Z,183.64
2022-12-08T22:25:36.989Z,171.26
2022-12-08T22:28:45.690Z,172.11
2022-12-08T22:31:54.076Z,172.08
2022-12-08T22:35:00.799Z,184.76
2022-12-08T22:38:06.362Z,189.18
2022-12-08T22:41:13.474Z,195.96
2022-12-08T22:44:19.035Z,195.87
2022-12-08T22:47:28.086Z,156.68
2022-12-08T22:50:33.583Z,170.75
2022-12-08T22:53:40.703Z,157.59
2022-12-08T22:56:46.314Z,167.41
2022-12-08T22:59:52.727Z,159.43
2022-12-08T23:03:00.878Z,152.73
2022-12-08T23:06:15.725Z,143.16
2022-12-08T23:09:21.399Z,132.67
2022-12-08T23:12:27.821Z,98.47
2022-12-08T23:15:33.539Z,78.87
2022-12-08T23:18:45.917Z,67.54
2022-12-08T23:21:51.673Z,59.35
2022-12-08T23:24:58.219Z,51.82
2022-12-08T23:28:03.832Z,48.04
2022-12-08T23:31:11.139Z,45.93
2022-12-08T23:34:19.498Z,45.21
2022-12-08T23:37:25.951Z,46.22
2022-12-08T23:40:31.492Z,42.90
2022-12-08T23:43:38.736Z,43.68
2022-12-08T23:46:44.373Z,42.58
2022-12-08T23:49:53.465Z,41.24
2022-12-08T23:52:58.977Z,36.24
2022-12-08T23:56:09.595Z,33.47
2022-12-08T23:59:15.420Z,32.42
